• Join FlightAware (Why Join?)
  • Login
  • US Flag 
04:12AM EDT


 

Airport Tracker/Info


-or-


 

Live Flight TrackerFlight Track Log ✈ SWA1969 ✈ 08-Apr-2013 ✈ KOKC - KMDW

Flight Track Log - Related Links

Times and Time Zones

All times are in EDT time to prevent confusion due to time zone crossing. See the SWA1969 flight status page for this flight to view local times or setup timezone preferences in your user account.

Time Position Orientation Groundspeed Altitude Reporting Facility
EDT Latitude Longitude Course Direction KTS MPH feet Rate Location/Type
08:47AM 35.3414 -97.5636 146° Southeast 197 227 3,600  Level Fort Worth Center
08:48AM 35.3667 -97.4542 74° East 328 377 5,800 2,580 Climbing Fort Worth Center
08:50AM 35.4694 -97.2536 58° Northeast 327 376 12,100 3,000 Climbing Kansas City Center
08:51AM 35.5247 -97.1453 58° Northeast 361 415 15,400 3,120 Climbing Kansas City Center
08:52AM 35.5808 -97.0333 58° Northeast 379 436 18,500 2,640 Climbing Kansas City Center
08:53AM 35.6414 -96.9114 59° Northeast 408 470 20,800 2,340 Climbing Kansas City Center
08:54AM 35.7047 -96.7850 58° Northeast 429 494 23,300 2,220 Climbing Kansas City Center
08:55AM 35.7692 -96.6553 58° Northeast 442 509 25,400 1,860 Climbing Kansas City Center
08:56AM 35.8383 -96.5178 58° Northeast 464 534 27,100 1,740 Climbing Kansas City Center
08:57AM 35.9194 -96.3536 59° Northeast 482 555 29,000 1,560 Climbing Kansas City Center
08:58AM 35.9931 -96.2053 58° Northeast 499 574 30,400 1,320 Climbing Kansas City Center
08:59AM 36.0675 -96.0528 59° Northeast 511 588 31,800 1,560 Climbing Kansas City Center
09:00AM 36.1425 -95.8983 59° Northeast 521 600 33,600 1,500 Climbing Kansas City Center
09:02AM 36.2189 -95.7411 59° Northeast 518 596 35,000 660 Climbing Kansas City Center
09:03AM 36.2936 -95.5881 59° Northeast 518 596 35,000 600 Level Kansas City Center
09:04AM 36.3678 -95.4347 59° Northeast 520 598 36,300 1,200 Climbing Kansas City Center
09:05AM 36.4394 -95.2797 60° Northeast 520 598 37,500 1,080 Climbing Kansas City Center
09:06AM 36.5136 -95.1281 59° Northeast 516 594 38,600 720 Climbing Kansas City Center
09:07AM 36.5928 -94.9614 59° Northeast 515 593 39,000 180 Climbing Kansas City Center
09:08AM 36.6658 -94.8081 59° Northeast 515 593 39,000  Level Kansas City Center
09:09AM 36.7389 -94.6544 59° Northeast 515 593 39,000  Level Kansas City Center
09:10AM 36.8225 -94.5106 54° Northeast 518 596 39,000  Level Kansas City Center
09:11AM 36.9458 -94.3722 42° Northeast 499 574 39,000  Level Kansas City Center
09:12AM 37.0494 -94.2525 43° Northeast 503 579 39,000  Level Kansas City Center
09:13AM 37.1533 -94.1328 43° Northeast 506 582 39,000  Level Kansas City Center
09:14AM 37.2553 -94.0200 41° Northeast 506 582 39,000  Level Kansas City Center
09:15AM 37.3603 -93.8992 42° Northeast 509 586 39,000  Level Kansas City Center
09:16AM 37.4650 -93.7792 42° Northeast 508 585 39,000  Level Kansas City Center
09:17AM 37.5672 -93.6578 43° Northeast 504 580 39,000  Level Kansas City Center
09:18AM 37.6919 -93.5139 42° Northeast 504 580 39,000  Level Kansas City Center
09:19AM 37.7942 -93.3922 43° Northeast 502 578 39,000  Level Kansas City Center
09:20AM 37.8975 -93.2711 43° Northeast 502 578 39,000  Level Kansas City Center
09:21AM 37.9992 -93.1508 43° Northeast 499 574 39,000  Level Kansas City Center
09:22AM 38.1028 -93.0289 43° Northeast 502 578 39,000  Level Kansas City Center
09:23AM 38.2039 -92.9089 43° Northeast 497 572 39,000  Level Kansas City Center
09:24AM 38.3050 -92.7881 43° Northeast 493 567 39,000  Level Kansas City Center
09:25AM 38.4058 -92.6642 44° Northeast 495 570 39,000  Level Kansas City Center
09:26AM 38.5078 -92.5425 43° Northeast 496 571 39,000  Level Kansas City Center
09:27AM 38.6097 -92.4197 43° Northeast 497 572 39,000  Level Kansas City Center
09:28AM 38.7100 -92.2936 44° Northeast 500 575 39,000  Level Kansas City Center
09:29AM 38.8122 -92.1697 43° Northeast 502 578 39,000  Level Kansas City Center
09:30AM 38.9150 -92.0447 43° Northeast 504 580 39,000  Level Kansas City Center
09:31AM 39.0175 -91.9181 44° Northeast 508 585 39,000  Level Kansas City Center
09:32AM 39.1397 -91.7675 44° Northeast 506 582 39,000  Level Kansas City Center
09:33AM 39.2297 -91.6553 44° Northeast 507 583 39,000 -60 Level Kansas City Center
09:34AM 39.3336 -91.5275 44° Northeast 512 589 38,900 -540 Descending Kansas City Center
09:35AM 39.4342 -91.4019 44° Northeast 508 585 37,900 -1,140 Descending Kansas City Center
09:36AM 39.5339 -91.2753 44° Northeast 504 580 36,700 -1,260 Descending Kansas City Center
09:37AM 39.6533 -91.1236 44° Northeast 500 575 35,400 -1,260 Descending Kansas City Center
09:38AM 39.7564 -90.9947 44° Northeast 508 585 34,200 -1,140 Descending Kansas City Center
09:39AM 39.8614 -90.8594 45° Northeast 519 597 33,100 -1,140 Descending Kansas City Center
09:40AM 39.9653 -90.7256 45° Northeast 522 601 31,900 -1,020 Descending Kansas City Center
09:42AM 40.0669 -90.5933 45° Northeast 521 600 31,000 -480 Descending Kansas City Center
09:43AM 40.1650 -90.4672 44° Northeast 507 583 31,000  Level Kansas City Center
09:44AM 40.2611 -90.3422 45° Northeast 496 571 31,000 -120 Level Kansas City Center
09:45AM 40.3583 -90.2161 45° Northeast 492 566 30,800 -2,400 Descending Kansas City Center
09:46AM 40.4778 -90.0606 45° Northeast 498 573 26,200 -3,300 Descending Kansas City Center
09:47AM 40.5819 -89.9217 45° Northeast 508 585 24,000 -1,920 Descending Kansas City Center
09:48AM 40.6708 -89.8006 46° Northeast 498 573 22,300 -1,800 Descending Kansas City Center
09:49AM 40.7386 -89.6569 58° Northeast 472 543 20,400 -1,800 Descending Kansas City Center
09:50AM 40.8069 -89.4975 60° Northeast 450 518 18,700 -1,680 Descending Kansas City Center
09:51AM 40.8639 -89.3689 60° Northeast 423 487 16,900 -1,920 Descending Chicago Center
09:52AM 40.9178 -89.2433 60° Northeast 401 461 14,700 -2,100 Descending Chicago Center
09:53AM 40.9744 -89.1267 57° Northeast 387 445 12,600 -1,800 Descending Chicago Center
09:54AM 41.0558 -89.0150 46° Northeast 362 417 11,000 -1,260 Descending Chicago Center
09:55AM 41.1228 -88.9208 47° Northeast 356 410 10,000 -900 Descending Chicago Center
09:56AM 41.1883 -88.8303 46° Northeast 350 403 9,200 -1,140 Descending Chicago Center
09:57AM 41.2511 -88.7414 47° Northeast 338 389 7,700 -1,500 Descending Chicago Center
09:58AM 41.3133 -88.6528 47° Northeast 330 380 6,200 -900 Descending Chicago Center
09:59AM 41.3736 -88.5653 47° Northeast 322 371 5,900 -180 Descending Chicago Center
10:00AM 41.4464 -88.4628 47° Northeast 318 366 5,900  Level Chicago Center
10:01AM 41.5069 -88.3739 48° Northeast 320 368 5,900  Level Chicago Center
10:02AM 41.5664 -88.2903 46° Northeast 316 364 5,900  Level Chicago Center
10:03AM 41.5961 -88.1947 67° East 304 350 5,900 -300 Level Chicago Center
10:04AM 41.6081 -88.0897 81° East 290 334 5,400 -540 Descending Chicago Center
10:05AM 41.6219 -87.9881 80° East 283 326 4,900 -300 Descending Chicago Center
10:06AM 41.6342 -87.9039 79° East 250 288 4,900 60 Level Chicago Center
10:07AM 41.6500 -87.8500 69° East 232 267 5,000 -240 Climbing Chicago TRACON
10:08AM 41.6500 -87.7667 90° East 232 267 4,600 -720 Descending Chicago TRACON
10:09AM 41.6333 -87.6833 105° East 204 235 3,600 -960 Descending Chicago TRACON
10:09AM 41.6197 -87.6583 126° Southeast 206 237 3,100 -480 Descending Chicago Center
10:10AM 41.6419 -87.5931 65° Northeast 219 252 2,900 -60 Descending Chicago Center
10:11AM 41.6869 -87.6147 340° North 202 232 3,000 -120 Climbing Chicago Center
10:12AM 41.7000 -87.6333 313° West 177 204 2,800 -840 Descending Chicago TRACON
10:13AM 41.7333 -87.6833 312° West 188 216 1,900 -600 Descending Chicago TRACON
10:14AM 41.8000 -87.6833 360° North 179 206 1,600 -180 Descending Chicago TRACON
10:15AM 41.8333 -87.7000 340° North 161 185 1,600 -300 Level Chicago TRACON
10:16AM 41.8000 -87.7333 217° Southwest 110 127 1,100 -480 Descending Chicago TRACON